Terminal Aerodrome Forecast
Issued by NWS Austin/San Antonio, TX

Home | Current Version | Previous Version | Text Only | Print | Product List | Glossary On
Versions: 1 2 3 4 5 6 7 8 9 10 11 12 13 14 15 16 17 18 19 20 21
000
FTUS44 KEWX 181740
TAFAUS
TAF
KAUS 181740Z 1818/1924 19012KT P6SM FEW040 FEW250
     FM190000 16012KT P6SM FEW250
     FM190700 19005KT P6SM SCT030
     FM191500 20012KT P6SM FEW040 FEW250=

USA.gov is the U.S. government's official web portal to all federal, state and local government web resources and services.